Time;durP1;ratioP1;P1;durP2;ratioP2;P2;SDS_P1;SDS_P2;PMS_P1;PMS_P2;Temp;Humidity;BMP_temperature;BMP_pressure;BME280_temperature;BME280_humidity;BME280_pressure;Samples;Min_cycle;Max_cycle;Signal;HPM_P1;HPM_P2
2023/07/10 00:00:17;;;;;;;;;;;16.70;68.70;;;;;;5029521;28;20400;-71
2023/07/10 00:02:43;;;;;;;;;;;16.80;68.70;;;;;;5029440;28;19923;-71
2023/07/10 00:05:13;;;;;;;;;;;16.80;68.80;;;;;;5029730;28;20013;-71
2023/07/10 00:07:39;;;;;;;;;;;16.90;68.80;;;;;;5029338;28;19924;-71
2023/07/10 00:10:04;;;;;;;;;;;16.90;68.80;;;;;;5029423;28;20302;-71
2023/07/10 00:12:30;;;;;;;;;;;16.80;68.80;;;;;;5029287;28;19909;-71
2023/07/10 00:14:56;;;;;;;;;;;16.80;68.90;;;;;;5028734;28;20002;-71
2023/07/10 00:17:21;;;;;;;;;;;16.80;69.00;;;;;;5029203;28;19913;-71
2023/07/10 00:19:47;;;;;;;;;;;16.80;68.90;;;;;;5029132;28;19921;-72
2023/07/10 00:22:12;;;;;;;;;;;16.70;68.80;;;;;;5028226;28;19913;-71
2023/07/10 00:24:38;;;;;;;;;;;16.70;68.90;;;;;;5027896;28;20015;-71
2023/07/10 00:27:09;;;;;;;;;;;16.60;69.00;;;;;;5029002;28;20376;-71
2023/07/10 00:29:34;;;;;;;;;;;16.60;69.60;;;;;;5029117;28;20312;-71
2023/07/10 00:32:09;;;;;;;;;;;16.60;69.10;;;;;;5029118;28;19920;-71
2023/07/10 00:34:34;;;;;;;;;;;16.60;69.20;;;;;;5029001;28;20417;-71
2023/07/10 00:37:00;;;;;;;;;;;16.60;69.20;;;;;;5028923;28;20004;-71
2023/07/10 00:39:27;;;;;;;;;;;16.60;69.20;;;;;;5028635;28;19917;-71
2023/07/10 00:41:57;;;;;;;;;;;16.60;69.30;;;;;;5028958;28;19916;-71
2023/07/10 00:44:25;;;;;;;;;;;16.70;69.30;;;;;;5028833;28;20297;-71
2023/07/10 00:47:02;;;;;;;;;;;16.70;69.20;;;;;;5028892;28;20143;-71
2023/07/10 00:49:43;;;;;;;;;;;16.70;69.20;;;;;;5028734;28;19913;-71
2023/07/10 00:52:19;;;;;;;;;;;16.80;69.20;;;;;;5028672;28;20076;-71
2023/07/10 00:54:46;;;;;;;;;;;16.90;69.10;;;;;;5028753;28;19964;-71
2023/07/10 00:57:21;;;;;;;;;;;16.90;68.90;;;;;;5028567;28;19917;-71
2023/07/10 00:59:48;;;;;;;;;;;16.80;68.90;;;;;;5028563;28;19917;-71
2023/07/10 01:02:14;;;;;;;;;;;16.80;69.00;;;;;;5028407;28;19972;-71
2023/07/10 01:04:41;;;;;;;;;;;16.70;69.50;;;;;;5028571;28;19948;-71
2023/07/10 01:07:10;;;;;;;;;;;16.70;69.20;;;;;;5028550;28;19909;-71
2023/07/10 01:09:36;;;;;;;;;;;16.60;69.20;;;;;;5028458;28;19917;-71
2023/07/10 01:12:03;;;;;;;;;;;16.60;69.30;;;;;;5028408;28;19913;-71
2023/07/10 01:14:34;;;;;;;;;;;16.60;69.40;;;;;;5028761;28;20003;-71
2023/07/10 01:17:01;;;;;;;;;;;16.70;69.40;;;;;;5028242;28;20336;-71
2023/07/10 01:19:27;;;;;;;;;;;16.70;69.30;;;;;;5028027;28;19914;-71
2023/07/10 01:21:53;;;;;;;;;;;16.70;69.40;;;;;;5028297;28;19949;-71
2023/07/10 01:24:18;;;;;;;;;;;16.80;69.30;;;;;;5028327;28;19948;-71
2023/07/10 01:26:44;;;;;;;;;;;16.90;69.30;;;;;;5028199;28;20358;-71
2023/07/10 01:29:33;;;;;;;;;;;16.90;69.20;;;;;;5026754;28;19918;-71
2023/07/10 01:32:00;;;;;;;;;;;16.90;69.10;;;;;;5022177;28;19913;-71
2023/07/10 01:34:45;;;;;;;;;;;17.00;69.20;;;;;;5028037;28;19920;-71
2023/07/10 01:37:11;;;;;;;;;;;17.00;69.20;;;;;;5028039;28;20064;-71
2023/07/10 01:39:41;;;;;;;;;;;17.00;69.10;;;;;;5027896;28;19920;-71
2023/07/10 01:42:07;;;;;;;;;;;17.00;69.10;;;;;;5027920;28;20344;-71
2023/07/10 01:44:34;;;;;;;;;;;17.10;69.10;;;;;;5027996;28;19952;-71
2023/07/10 01:47:01;;;;;;;;;;;17.10;69.10;;;;;;5027915;28;19968;-71
2023/07/10 01:49:27;;;;;;;;;;;17.10;69.10;;;;;;5027940;28;19909;-71
2023/07/10 01:51:53;;;;;;;;;;;17.10;69.10;;;;;;5026626;28;19963;-71
2023/07/10 01:54:19;;;;;;;;;;;17.20;69.20;;;;;;5027838;28;19913;-71
2023/07/10 01:56:45;;;;;;;;;;;17.20;69.10;;;;;;5027688;28;19913;-71
2023/07/10 01:59:11;;;;;;;;;;;17.30;69.10;;;;;;5027822;28;19956;-71
2023/07/10 02:01:36;;;;;;;;;;;17.30;69.00;;;;;;5027551;28;20359;-71
2023/07/10 02:04:02;;;;;;;;;;;17.30;69.50;;;;;;5026496;28;20265;-71
2023/07/10 02:06:30;;;;;;;;;;;17.30;69.00;;;;;;5027705;28;20014;-71
2023/07/10 02:08:56;;;;;;;;;;;17.30;69.00;;;;;;5027686;28;20055;-71
2023/07/10 02:11:21;;;;;;;;;;;17.30;69.00;;;;;;5027712;28;20004;-71
2023/07/10 02:13:47;;;;;;;;;;;17.30;69.00;;;;;;5026523;28;19999;-71
2023/07/10 02:16:14;;;;;;;;;;;17.30;69.00;;;;;;5027648;28;19920;-71
2023/07/10 02:18:40;;;;;;;;;;;17.40;69.10;;;;;;5027492;28;19913;-71
2023/07/10 02:21:05;;;;;;;;;;;17.40;69.10;;;;;;5027694;28;19913;-71
2023/07/10 02:23:31;;;;;;;;;;;17.40;69.10;;;;;;5027646;28;20293;-71
2023/07/10 02:25:56;;;;;;;;;;;17.40;69.10;;;;;;5027543;28;19917;-71
2023/07/10 02:28:22;;;;;;;;;;;17.40;69.00;;;;;;5027493;28;19913;-71
2023/07/10 02:30:48;;;;;;;;;;;17.40;69.00;;;;;;5027479;28;19920;-71
2023/07/10 02:33:13;;;;;;;;;;;17.40;69.00;;;;;;5027541;28;19960;-71
2023/07/10 02:35:40;;;;;;;;;;;17.40;69.10;;;;;;5027435;28;19971;-71
2023/07/10 02:38:06;;;;;;;;;;;17.40;69.00;;;;;;5030146;28;19909;-71
2023/07/10 02:40:32;;;;;;;;;;;17.40;69.10;;;;;;5031585;28;19948;-71
2023/07/10 02:42:57;;;;;;;;;;;17.40;69.10;;;;;;5031195;28;20277;-71
2023/07/10 02:45:23;;;;;;;;;;;17.40;69.10;;;;;;5031227;28;20012;-71
2023/07/10 02:47:49;;;;;;;;;;;17.40;69.20;;;;;;5030901;28;19913;-71
2023/07/10 02:50:15;;;;;;;;;;;17.40;69.20;;;;;;5030925;28;19917;-71
2023/07/10 02:52:40;;;;;;;;;;;17.40;69.20;;;;;;5030935;28;19913;-71
2023/07/10 02:55:06;;;;;;;;;;;17.40;69.20;;;;;;5030823;28;19916;-71
2023/07/10 02:57:31;;;;;;;;;;;17.40;69.20;;;;;;5030708;28;19921;-71
2023/07/10 02:59:57;;;;;;;;;;;17.40;69.20;;;;;;5030730;28;19913;-71
2023/07/10 03:02:23;;;;;;;;;;;17.40;69.20;;;;;;5030580;28;20016;-71
2023/07/10 03:04:48;;;;;;;;;;;17.40;69.20;;;;;;5030808;28;19932;-71
2023/07/10 03:07:14;;;;;;;;;;;17.40;69.20;;;;;;5030747;28;20392;-71
2023/07/10 03:09:39;;;;;;;;;;;17.40;69.30;;;;;;5030460;28;19924;-71
2023/07/10 03:12:05;;;;;;;;;;;17.50;69.30;;;;;;5030545;28;20388;-71
2023/07/10 03:14:31;;;;;;;;;;;17.50;69.20;;;;;;5030590;28;20289;-71
2023/07/10 03:16:56;;;;;;;;;;;17.50;69.20;;;;;;5030940;28;20380;-71
2023/07/10 03:19:22;;;;;;;;;;;17.50;69.20;;;;;;5030312;28;19921;-71
2023/07/10 03:21:47;;;;;;;;;;;17.50;69.20;;;;;;5030459;28;19943;-71
2023/07/10 03:24:13;;;;;;;;;;;17.60;69.20;;;;;;5030283;28;19928;-71
2023/07/10 03:26:38;;;;;;;;;;;17.60;69.10;;;;;;5030256;28;19952;-71
2023/07/10 03:29:09;;;;;;;;;;;17.60;69.00;;;;;;5028896;28;19913;-71
2023/07/10 03:31:34;;;;;;;;;;;17.60;69.00;;;;;;5028786;28;20155;-71
2023/07/10 03:34:00;;;;;;;;;;;17.60;69.00;;;;;;5030127;28;20377;-71
2023/07/10 03:36:25;;;;;;;;;;;17.50;69.00;;;;;;5030173;28;20337;-71
2023/07/10 03:38:51;;;;;;;;;;;17.50;69.00;;;;;;5029980;28;19943;-71
2023/07/10 03:41:17;;;;;;;;;;;17.40;68.80;;;;;;5029995;28;19924;-71
2023/07/10 03:43:42;;;;;;;;;;;17.20;68.60;;;;;;5030002;28;20366;-71
2023/07/10 03:46:10;;;;;;;;;;;16.90;68.70;;;;;;5029975;28;19926;-71
2023/07/10 03:48:36;;;;;;;;;;;16.70;68.90;;;;;;5028810;28;20341;-71
2023/07/10 03:51:02;;;;;;;;;;;16.50;69.10;;;;;;5029966;28;19944;-71
2023/07/10 03:53:28;;;;;;;;;;;16.40;69.20;;;;;;5029654;28;19932;-70
2023/07/10 03:55:55;;;;;;;;;;;16.40;69.30;;;;;;5029847;28;20396;-71
2023/07/10 03:58:22;;;;;;;;;;;16.30;69.40;;;;;;5029686;28;19909;-71
2023/07/10 04:00:48;;;;;;;;;;;16.30;69.50;;;;;;5029621;28;19931;-71
2023/07/10 04:03:14;;;;;;;;;;;16.30;69.50;;;;;;5029518;28;19925;-71
2023/07/10 04:05:41;;;;;;;;;;;16.40;69.50;;;;;;5029329;28;20282;-71
2023/07/10 04:08:06;;;;;;;;;;;16.40;69.40;;;;;;5029332;28;20302;-71
2023/07/10 04:10:32;;;;;;;;;;;16.40;69.50;;;;;;5028982;28;20067;-71
2023/07/10 04:13:00;;;;;;;;;;;16.40;69.40;;;;;;5026989;28;21268;-71
2023/07/10 04:15:25;;;;;;;;;;;16.50;69.30;;;;;;5029010;28;19913;-71
2023/07/10 04:17:51;;;;;;;;;;;16.50;69.20;;;;;;5028879;28;19914;-71
2023/07/10 04:20:16;;;;;;;;;;;16.50;69.10;;;;;;5028810;28;19932;-71
2023/07/10 04:22:42;;;;;;;;;;;16.60;69.20;;;;;;5028731;28;19913;-71
2023/07/10 04:25:07;;;;;;;;;;;16.60;69.20;;;;;;5028728;28;19956;-71
2023/07/10 04:27:33;;;;;;;;;;;16.60;69.20;;;;;;5028656;28;19917;-71
2023/07/10 04:29:58;;;;;;;;;;;16.60;69.20;;;;;;5028849;28;19913;-71
2023/07/10 04:32:24;;;;;;;;;;;16.60;69.20;;;;;;5029026;28;19956;-71
2023/07/10 04:34:50;;;;;;;;;;;16.60;69.20;;;;;;5029033;28;20200;-71
2023/07/10 04:37:15;;;;;;;;;;;16.50;69.30;;;;;;5028835;28;19913;-71
2023/07/10 04:39:41;;;;;;;;;;;16.50;69.30;;;;;;5028841;28;19913;-71
2023/07/10 04:42:06;;;;;;;;;;;16.60;69.40;;;;;;5028878;28;20385;-71
2023/07/10 04:44:32;;;;;;;;;;;16.60;69.20;;;;;;5028669;28;19978;-72
2023/07/10 04:46:58;;;;;;;;;;;16.60;69.20;;;;;;5027499;28;19917;-71
2023/07/10 04:49:23;;;;;;;;;;;16.60;69.20;;;;;;5028734;28;20488;-71
2023/07/10 04:51:49;;;;;;;;;;;16.60;69.20;;;;;;5028708;28;20423;-71
2023/07/10 04:54:14;;;;;;;;;;;16.70;69.20;;;;;;5028860;28;20280;-71
2023/07/10 04:56:40;;;;;;;;;;;16.70;69.20;;;;;;5028629;28;20401;-71
2023/07/10 04:59:05;;;;;;;;;;;16.70;69.10;;;;;;5028413;28;19913;-71
2023/07/10 05:01:34;;;;;;;;;;;16.80;69.10;;;;;;5028024;28;19924;-71
2023/07/10 05:04:00;;;;;;;;;;;16.80;69.20;;;;;;5028440;28;19921;-71
2023/07/10 05:06:26;;;;;;;;;;;16.80;69.30;;;;;;5028452;28;19963;-71
2023/07/10 05:08:53;;;;;;;;;;;16.80;69.80;;;;;;5028849;28;19913;-71
2023/07/10 05:11:22;;;;;;;;;;;16.90;69.50;;;;;;5028307;28;19913;-71
2023/07/10 05:13:47;;;;;;;;;;;17.00;69.70;;;;;;5028333;28;19945;-71
2023/07/10 05:16:14;;;;;;;;;;;17.00;69.40;;;;;;5028152;28;20014;-71
2023/07/10 05:18:39;;;;;;;;;;;17.10;69.30;;;;;;5028043;28;19972;-71
2023/07/10 05:21:05;;;;;;;;;;;17.10;69.30;;;;;;5028217;28;19917;-71
2023/07/10 05:23:31;;;;;;;;;;;17.10;69.40;;;;;;5028247;28;20254;-71
2023/07/10 05:25:58;;;;;;;;;;;17.10;69.40;;;;;;5027937;28;19979;-71
2023/07/10 05:28:24;;;;;;;;;;;17.00;69.40;;;;;;5028045;28;19910;-71
2023/07/10 05:30:49;;;;;;;;;;;17.00;69.60;;;;;;5027860;28;20358;-71
2023/07/10 05:33:15;;;;;;;;;;;17.00;69.50;;;;;;5028038;28;20326;-71
2023/07/10 05:35:47;;;;;;;;;;;17.00;69.50;;;;;;5027972;28;19948;-71
2023/07/10 05:38:13;;;;;;;;;;;17.00;69.50;;;;;;5027704;28;19909;-71
2023/07/10 05:40:42;;;;;;;;;;;17.00;69.60;;;;;;5027775;28;20286;-71
2023/07/10 05:43:07;;;;;;;;;;;16.90;69.50;;;;;;5027616;28;19909;-71
2023/07/10 05:45:33;;;;;;;;;;;16.80;69.70;;;;;;5027732;28;20007;-71
2023/07/10 05:47:58;;;;;;;;;;;16.70;69.80;;;;;;5027665;28;19913;-71
2023/07/10 05:50:24;;;;;;;;;;;16.70;69.90;;;;;;5027701;28;19964;-71
2023/07/10 05:52:49;;;;;;;;;;;16.80;69.90;;;;;;5027739;28;19922;-71
2023/07/10 05:55:15;;;;;;;;;;;16.80;69.90;;;;;;5027703;28;20012;-71
2023/07/10 05:57:40;;;;;;;;;;;16.80;69.90;;;;;;5027437;28;20297;-71
2023/07/10 06:00:06;;;;;;;;;;;16.80;69.90;;;;;;5027668;28;19917;-71
2023/07/10 06:02:32;;;;;;;;;;;16.80;69.90;;;;;;5027507;28;20074;-71
2023/07/10 06:04:57;;;;;;;;;;;16.80;70.00;;;;;;5026881;28;19917;-71
2023/07/10 06:07:23;;;;;;;;;;;16.80;70.10;;;;;;5027672;28;19913;-71
2023/07/10 06:09:48;;;;;;;;;;;16.80;70.10;;;;;;5027413;28;20322;-71
2023/07/10 06:12:14;;;;;;;;;;;16.90;70.20;;;;;;5029212;28;20328;-71
2023/07/10 06:14:39;;;;;;;;;;;16.90;70.10;;;;;;5031605;28;20010;-71
2023/07/10 06:17:05;;;;;;;;;;;16.90;70.20;;;;;;5030011;28;19913;-70
2023/07/10 06:19:31;;;;;;;;;;;16.90;70.10;;;;;;5029870;28;19917;-71
2023/07/10 06:22:09;;;;;;;;;;;16.90;70.10;;;;;;5031296;28;20007;-71
2023/07/10 06:24:35;;;;;;;;;;;16.90;70.10;;;;;;5031402;28;19917;-71
2023/07/10 06:27:02;;;;;;;;;;;17.00;70.30;;;;;;5031288;28;20357;-71
2023/07/10 06:29:28;;;;;;;;;;;17.00;70.30;;;;;;5030012;28;19921;-71
2023/07/10 06:31:54;;;;;;;;;;;17.10;70.30;;;;;;5031078;28;19913;-71
2023/07/10 06:34:19;;;;;;;;;;;17.30;70.30;;;;;;5030947;28;19947;-71
2023/07/10 06:36:45;;;;;;;;;;;17.40;70.20;;;;;;5030975;28;19923;-71
2023/07/10 06:39:10;;;;;;;;;;;17.50;70.30;;;;;;5030794;28;20424;-71
2023/07/10 06:41:36;;;;;;;;;;;17.70;70.40;;;;;;5030992;28;20004;-71
2023/07/10 06:44:01;;;;;;;;;;;17.90;70.60;;;;;;5031015;28;20547;-71
2023/07/10 06:46:27;;;;;;;;;;;18.50;70.90;;;;;;5030789;28;19956;-71
2023/07/10 06:48:52;;;;;;;;;;;19.10;70.30;;;;;;5030752;28;19921;-71
2023/07/10 06:51:18;;;;;;;;;;;19.40;69.80;;;;;;5030806;28;20282;-71
2023/07/10 06:53:44;;;;;;;;;;;19.50;69.40;;;;;;5030635;28;19939;-71
2023/07/10 06:56:09;;;;;;;;;;;19.40;69.30;;;;;;5030493;28;19920;-71
2023/07/10 06:58:35;;;;;;;;;;;19.30;69.40;;;;;;5030584;28;20315;-71
2023/07/10 07:01:01;;;;;;;;;;;19.20;69.60;;;;;;5030082;28;20378;-71
2023/07/10 07:03:27;;;;;;;;;;;19.00;69.60;;;;;;5030416;28;20018;-72
2023/07/10 07:05:53;;;;;;;;;;;18.80;69.90;;;;;;5030499;28;20299;-71
2023/07/10 07:08:19;;;;;;;;;;;18.70;70.10;;;;;;5030436;28;19913;-71
2023/07/10 07:10:45;;;;;;;;;;;18.50;70.10;;;;;;5030441;28;20000;-71
2023/07/10 07:13:11;;;;;;;;;;;18.40;70.10;;;;;;5030328;28;19913;-71
2023/07/10 07:15:37;;;;;;;;;;;18.20;70.40;;;;;;5030334;28;20007;-71
2023/07/10 07:18:03;;;;;;;;;;;18.20;70.50;;;;;;5028588;28;20011;-71
2023/07/10 07:20:32;;;;;;;;;;;18.10;70.60;;;;;;5030206;28;19959;-71
2023/07/10 07:22:58;;;;;;;;;;;18.20;70.60;;;;;;5030291;28;19949;-71
2023/07/10 07:25:23;;;;;;;;;;;18.20;70.50;;;;;;5030004;28;19948;-71
2023/07/10 07:27:49;;;;;;;;;;;18.30;70.50;;;;;;5028578;28;20413;-71
2023/07/10 07:30:15;;;;;;;;;;;18.40;70.30;;;;;;5029983;28;19915;-71
2023/07/10 07:32:40;;;;;;;;;;;18.30;70.20;;;;;;5030037;28;20593;-71
2023/07/10 07:35:06;;;;;;;;;;;18.30;70.40;;;;;;5029819;28;19913;-71
2023/07/10 07:37:31;;;;;;;;;;;18.40;70.60;;;;;;5029859;28;20291;-71
2023/07/10 07:40:00;;;;;;;;;;;18.60;70.70;;;;;;5029693;28;19940;-71
2023/07/10 07:42:26;;;;;;;;;;;18.80;70.60;;;;;;5029889;28;19913;-72
2023/07/10 07:44:52;;;;;;;;;;;19.00;70.50;;;;;;5029609;28;19921;-71
2023/07/10 07:47:17;;;;;;;;;;;19.20;70.30;;;;;;5029765;28;20277;-71
2023/07/10 07:49:43;;;;;;;;;;;19.30;70.00;;;;;;5029430;28;20340;-71
2023/07/10 07:52:09;;;;;;;;;;;19.30;69.70;;;;;;5029558;28;19951;-71
2023/07/10 07:54:34;;;;;;;;;;;19.30;69.80;;;;;;5029443;28;20392;-71
2023/07/10 07:57:00;;;;;;;;;;;19.20;69.90;;;;;;5029582;28;20388;-71
2023/07/10 07:59:25;;;;;;;;;;;19.10;70.00;;;;;;5029208;28;19971;-71
2023/07/10 08:01:51;;;;;;;;;;;18.90;70.10;;;;;;5028963;28;20479;-71
2023/07/10 08:04:20;;;;;;;;;;;18.70;70.30;;;;;;5029037;28;19920;-71
2023/07/10 08:06:46;;;;;;;;;;;18.60;70.30;;;;;;5029172;28;19969;-71
2023/07/10 08:09:12;;;;;;;;;;;18.40;70.40;;;;;;5029286;28;19914;-71
2023/07/10 08:11:37;;;;;;;;;;;18.20;70.50;;;;;;5029259;28;19932;-70
2023/07/10 08:14:03;;;;;;;;;;;18.00;70.80;;;;;;5029073;28;20361;-71
2023/07/10 08:16:28;;;;;;;;;;;17.90;71.00;;;;;;5029252;28;19920;-71
2023/07/10 08:18:54;;;;;;;;;;;17.90;71.10;;;;;;5027533;28;20381;-71
2023/07/10 08:21:19;;;;;;;;;;;17.90;71.10;;;;;;5027554;28;19921;-71
2023/07/10 08:23:45;;;;;;;;;;;17.90;71.10;;;;;;5029410;28;19909;-71
2023/07/10 08:26:11;;;;;;;;;;;18.00;71.10;;;;;;5029138;28;20352;-71
2023/07/10 08:28:36;;;;;;;;;;;18.10;70.90;;;;;;5028924;28;19908;-71
2023/07/10 08:31:02;;;;;;;;;;;18.10;70.90;;;;;;5028930;28;19960;-71
2023/07/10 08:33:28;;;;;;;;;;;18.10;70.90;;;;;;5028590;28;19917;-70
2023/07/10 08:35:54;;;;;;;;;;;18.10;71.00;;;;;;5028337;28;20379;-71
2023/07/10 08:38:20;;;;;;;;;;;18.10;70.90;;;;;;5028660;28;19917;-71
2023/07/10 08:40:47;;;;;;;;;;;18.10;71.00;;;;;;5028620;28;19913;-72
2023/07/10 08:43:13;;;;;;;;;;;18.00;71.10;;;;;;5028651;28;19909;-71
2023/07/10 08:45:39;;;;;;;;;;;17.90;71.20;;;;;;5026906;28;19916;-71
2023/07/10 08:48:21;;;;;;;;;;;18.00;71.20;;;;;;5028128;28;19909;-71
2023/07/10 08:50:47;;;;;;;;;;;18.00;70.90;;;;;;5029708;28;19939;-70
2023/07/10 08:53:16;;;;;;;;;;;18.00;71.10;;;;;;5048235;28;19909;-70
2023/07/10 08:55:41;;;;;;;;;;;18.00;71.00;;;;;;5038822;28;19917;-70
2023/07/10 08:58:09;;;;;;;;;;;18.00;71.10;;;;;;5037950;28;20400;-70
2023/07/10 09:00:40;;;;;;;;;;;18.00;71.30;;;;;;5028997;28;20322;-70
2023/07/10 09:03:24;;;;;;;;;;;18.20;71.40;;;;;;5029266;28;19928;-70
2023/07/10 09:05:50;;;;;;;;;;;18.40;71.30;;;;;;5029062;28;19931;-70
2023/07/10 09:08:16;;;;;;;;;;;18.60;71.40;;;;;;5029185;28;19920;-70
2023/07/10 09:10:50;;;;;;;;;;;18.80;71.00;;;;;;5027969;28;19917;-70
2023/07/10 09:13:20;;;;;;;;;;;19.00;71.10;;;;;;5029028;28;19913;-70
2023/07/10 09:15:52;;;;;;;;;;;19.30;71.30;;;;;;5029143;28;19936;-70
2023/07/10 09:18:28;;;;;;;;;;;19.50;71.00;;;;;;5028783;28;19921;-70
2023/07/10 09:20:56;;;;;;;;;;;19.60;70.80;;;;;;5028925;28;19985;-70
2023/07/10 09:23:27;;;;;;;;;;;19.70;70.70;;;;;;5029089;28;19948;-70
2023/07/10 09:25:59;;;;;;;;;;;19.80;70.70;;;;;;5027486;28;20396;-69
2023/07/10 09:28:25;;;;;;;;;;;19.90;70.60;;;;;;5028664;28;19988;-70
2023/07/10 09:30:54;;;;;;;;;;;19.90;70.80;;;;;;5028722;28;19941;-70
2023/07/10 09:33:20;;;;;;;;;;;19.90;71.00;;;;;;5028576;28;20058;-70
2023/07/10 09:35:46;;;;;;;;;;;20.10;70.90;;;;;;5028373;28;19920;-70
2023/07/10 09:38:13;;;;;;;;;;;20.20;70.80;;;;;;5027971;28;19913;-70
2023/07/10 09:40:43;;;;;;;;;;;20.20;71.00;;;;;;5028289;28;19964;-70
2023/07/10 09:43:14;;;;;;;;;;;20.40;71.10;;;;;;5027130;28;19909;-70
2023/07/10 09:45:45;;;;;;;;;;;20.50;71.20;;;;;;5028205;28;20401;-70
2023/07/10 09:48:33;;;;;;;;;;;20.90;71.50;;;;;;5027804;28;20416;-70
2023/07/10 09:51:03;;;;;;;;;;;21.70;72.40;;;;;;5019989;28;19910;-71
2023/07/10 09:53:30;;;;;;;;;;;22.80;71.60;;;;;;5033526;28;20405;-70
2023/07/10 09:55:56;;;;;;;;;;;23.70;71.50;;;;;;5039096;28;19912;-70
2023/07/10 09:58:21;;;;;;;;;;;24.60;70.80;;;;;;5040605;28;19913;-70
2023/07/10 10:00:48;;;;;;;;;;;24.70;69.70;;;;;;5038719;28;19921;-70
2023/07/10 10:03:30;;;;;;;;;;;24.30;69.30;;;;;;5038484;28;19933;-70
2023/07/10 10:05:56;;;;;;;;;;;23.70;69.60;;;;;;5038664;28;20015;-71
2023/07/10 10:08:30;;;;;;;;;;;23.30;70.40;;;;;;5029725;28;19913;-71
2023/07/10 10:11:05;;;;;;;;;;;23.10;70.80;;;;;;5027909;28;19911;-72
2023/07/10 10:13:32;;;;;;;;;;;23.10;71.10;;;;;;5028817;28;20050;-71
2023/07/10 10:16:06;;;;;;;;;;;23.10;71.00;;;;;;5028603;28;19925;-71
2023/07/10 10:18:31;;;;;;;;;;;23.10;70.90;;;;;;5027611;28;20657;-72
2023/07/10 10:20:57;;;;;;;;;;;23.20;71.20;;;;;;5027118;28;20001;-72
2023/07/10 10:23:34;;;;;;;;;;;23.40;71.20;;;;;;5028161;28;19956;-71
2023/07/10 10:26:06;;;;;;;;;;;23.70;71.10;;;;;;5028007;28;19913;-72
2023/07/10 10:28:38;;;;;;;;;;;23.80;70.80;;;;;;5027998;28;19920;-71
2023/07/10 10:31:07;;;;;;;;;;;24.20;71.90;;;;;;5027853;28;19913;-71
2023/07/10 10:33:47;;;;;;;;;;;24.70;71.30;;;;;;5028043;28;19948;-71
2023/07/10 10:36:19;;;;;;;;;;;25.40;71.40;;;;;;5025938;28;20338;-72
2023/07/10 10:38:57;;;;;;;;;;;26.40;71.80;;;;;;5027859;28;20354;-72
2023/07/10 10:41:35;;;;;;;;;;;27.20;71.50;;;;;;5027714;28;19917;-72
2023/07/10 10:44:01;;;;;;;;;;;27.80;71.50;;;;;;5027693;28;19956;-72
2023/07/10 10:46:34;;;;;;;;;;;27.60;70.20;;;;;;5027909;28;19960;-71
2023/07/10 10:48:59;;;;;;;;;;;26.90;69.40;;;;;;5027803;28;19964;-72
2023/07/10 10:51:25;;;;;;;;;;;26.00;69.30;;;;;;5028030;28;19948;-72
2023/07/10 10:54:02;;;;;;;;;;;25.20;69.60;;;;;;5028569;28;19917;-71
2023/07/10 10:56:54;;;;;;;;;;;24.40;69.90;;;;;;5039271;28;20137;-71
2023/07/10 10:59:19;;;;;;;;;;;23.70;70.30;;;;;;5014055;28;19913;-72
2023/07/10 11:01:51;;;;;;;;;;;23.10;70.90;;;;;;5042883;28;19959;-71
2023/07/10 11:04:29;;;;;;;;;;;22.70;71.10;;;;;;5039118;28;19920;-71
2023/07/10 11:06:57;;;;;;;;;;;22.40;71.30;;;;;;5050913;28;20384;-70
2023/07/10 11:09:26;;;;;;;;;;;22.10;71.50;;;;;;5044469;28;20548;-70
2023/07/10 11:11:52;;;;;;;;;;;21.90;71.30;;;;;;5031526;28;19913;-71
2023/07/10 11:14:19;;;;;;;;;;;21.50;70.90;;;;;;5031212;28;19933;-71
2023/07/10 11:16:45;;;;;;;;;;;21.10;70.80;;;;;;5030686;28;19921;-71
2023/07/10 11:19:14;;;;;;;;;;;20.70;70.80;;;;;;5030813;28;19916;-71
2023/07/10 11:21:39;;;;;;;;;;;20.20;70.90;;;;;;5030950;28;19920;-71
2023/07/10 11:24:15;;;;;;;;;;;19.80;71.40;;;;;;5030905;28;20410;-70
2023/07/10 11:26:41;;;;;;;;;;;19.50;71.60;;;;;;5037771;28;19919;-71
2023/07/10 11:29:18;;;;;;;;;;;19.30;71.70;;;;;;5041461;28;20273;-71
2023/07/10 11:31:49;;;;;;;;;;;19.10;71.70;;;;;;5041013;28;19990;-70
2023/07/10 11:34:15;;;;;;;;;;;18.90;71.50;;;;;;5041491;28;19955;-70
2023/07/10 11:36:42;;;;;;;;;;;18.80;71.50;;;;;;5039575;28;20293;-71
2023/07/10 11:39:11;;;;;;;;;;;18.50;71.50;;;;;;5041694;28;20400;-72
2023/07/10 11:41:59;;;;;;;;;;;18.50;71.70;;;;;;5050442;28;20403;-71
2023/07/10 11:44:34;;;;;;;;;;;18.40;71.60;;;;;;5050418;28;19913;-71
2023/07/10 11:47:05;;;;;;;;;;;18.40;71.60;;;;;;5050240;28;19984;-72
2023/07/10 11:49:33;;;;;;;;;;;18.40;71.60;;;;;;5050415;28;19940;-71
2023/07/10 11:52:14;;;;;;;;;;;18.40;71.50;;;;;;5049178;28;19931;-71
2023/07/10 11:54:48;;;;;;;;;;;18.40;71.40;;;;;;5049939;28;20363;-71
2023/07/10 11:57:17;;;;;;;;;;;18.40;71.70;;;;;;5050105;28;19909;-71
2023/07/10 11:59:48;;;;;;;;;;;18.50;71.70;;;;;;5049751;28;19948;-71
2023/07/10 12:02:32;;;;;;;;;;;18.60;71.70;;;;;;5049940;28;19943;-72
2023/07/10 12:04:59;;;;;;;;;;;18.60;71.50;;;;;;5049890;28;20374;-71
2023/07/10 12:07:25;;;;;;;;;;;18.60;71.20;;;;;;5049575;28;19955;-71
2023/07/10 12:10:00;;;;;;;;;;;18.60;71.20;;;;;;5048662;28;19917;-71
2023/07/10 12:12:29;;;;;;;;;;;18.50;71.20;;;;;;5049692;28;19909;-70
2023/07/10 12:14:54;;;;;;;;;;;18.50;71.10;;;;;;5049109;28;20246;-70
2023/07/10 12:17:20;;;;;;;;;;;18.40;71.20;;;;;;5038773;28;19921;-71
2023/07/10 12:19:47;;;;;;;;;;;18.40;71.40;;;;;;5038855;28;20250;-71
2023/07/10 12:22:18;;;;;;;;;;;18.30;71.30;;;;;;5037107;28;19920;-71
2023/07/10 12:24:48;;;;;;;;;;;18.40;71.30;;;;;;5037613;28;19913;-70
2023/07/10 12:27:13;;;;;;;;;;;18.50;71.40;;;;;;5043965;28;19928;-70
2023/07/10 12:29:46;;;;;;;;;;;18.60;71.50;;;;;;5048904;28;20476;-70
2023/07/10 12:32:14;;;;;;;;;;;18.50;71.60;;;;;;5043317;28;19909;-71
2023/07/10 12:34:39;;;;;;;;;;;18.40;71.80;;;;;;5045551;28;19912;-70
2023/07/10 12:37:08;;;;;;;;;;;18.50;72.00;;;;;;5038449;28;19920;-72
2023/07/10 12:39:34;;;;;;;;;;;18.60;72.00;;;;;;5049377;28;19916;-72
2023/07/10 12:42:00;;;;;;;;;;;18.70;71.90;;;;;;5049257;28;19908;-71
2023/07/10 12:44:30;;;;;;;;;;;18.80;72.10;;;;;;5049282;28;20323;-71
2023/07/10 12:47:05;;;;;;;;;;;19.00;72.00;;;;;;5049489;28;19909;-71
2023/07/10 12:49:31;;;;;;;;;;;19.00;71.80;;;;;;5047831;28;20425;-71
2023/07/10 12:51:58;;;;;;;;;;;19.20;71.70;;;;;;5049380;28;20278;-71
2023/07/10 12:54:27;;;;;;;;;;;19.30;71.50;;;;;;5049098;28;19968;-71
2023/07/10 12:56:53;;;;;;;;;;;19.40;71.60;;;;;;5048639;28;19913;-71
2023/07/10 12:59:32;;;;;;;;;;;19.50;71.40;;;;;;5048445;28;19947;-71
2023/07/10 13:02:02;;;;;;;;;;;19.60;71.30;;;;;;5048613;28;19996;-70
2023/07/10 13:04:31;;;;;;;;;;;19.50;71.10;;;;;;5048860;28;19924;-71
2023/07/10 13:07:15;;;;;;;;;;;19.40;71.10;;;;;;5048930;28;19948;-70
2023/07/10 13:09:41;;;;;;;;;;;19.30;71.50;;;;;;5048927;28;19913;-70
2023/07/10 13:12:18;;;;;;;;;;;19.20;71.50;;;;;;5048680;28;19909;-70
2023/07/10 13:14:44;;;;;;;;;;;19.10;71.50;;;;;;5048745;28;19908;-70
2023/07/10 13:17:10;;;;;;;;;;;19.00;71.50;;;;;;5048923;28;19919;-70
2023/07/10 13:19:36;;;;;;;;;;;19.00;71.50;;;;;;5047177;28;19936;-70
2023/07/10 13:22:02;;;;;;;;;;;19.10;71.60;;;;;;5048367;28;20281;-70
2023/07/10 13:24:27;;;;;;;;;;;19.10;71.50;;;;;;5048460;28;19917;-70
2023/07/10 13:26:53;;;;;;;;;;;19.10;71.30;;;;;;5048653;28;19912;-70
2023/07/10 13:29:19;;;;;;;;;;;19.10;71.20;;;;;;5048318;28;19913;-70
2023/07/10 13:31:44;;;;;;;;;;;19.10;71.10;;;;;;5048330;28;19924;-70
2023/07/10 13:34:11;;;;;;;;;;;19.00;71.20;;;;;;5048479;28;19999;-71
2023/07/10 13:36:37;;;;;;;;;;;19.00;71.20;;;;;;5048365;28;19912;-71
2023/07/10 13:39:02;;;;;;;;;;;19.00;71.30;;;;;;5047331;28;19919;-71
2023/07/10 13:41:28;;;;;;;;;;;19.00;71.30;;;;;;5048436;28;20047;-71
2023/07/10 13:43:54;;;;;;;;;;;18.90;71.10;;;;;;5048655;28;19912;-71
2023/07/10 13:46:23;;;;;;;;;;;18.80;71.20;;;;;;5048410;28;19960;-71
2023/07/10 13:48:49;;;;;;;;;;;18.80;71.40;;;;;;5048277;28;19988;-70
2023/07/10 13:51:16;;;;;;;;;;;18.70;71.50;;;;;;5048196;28;19935;-71
2023/07/10 13:53:42;;;;;;;;;;;18.70;71.60;;;;;;5048192;28;19963;-70
2023/07/10 13:56:28;;;;;;;;;;;18.70;71.60;;;;;;5048289;28;20011;-71
2023/07/10 13:58:54;;;;;;;;;;;18.80;71.70;;;;;;5047644;28;19908;-71
2023/07/10 14:01:21;;;;;;;;;;;18.90;71.60;;;;;;5030301;28;19943;-71
2023/07/10 14:03:46;;;;;;;;;;;19.00;71.80;;;;;;5047169;28;20020;-71
2023/07/10 14:06:24;;;;;;;;;;;19.10;71.90;;;;;;5048448;28;20023;-71
2023/07/10 14:08:51;;;;;;;;;;;19.20;71.70;;;;;;5048154;28;20415;-71
2023/07/10 14:11:18;;;;;;;;;;;19.40;71.60;;;;;;5048257;28;19912;-72
2023/07/10 14:13:44;;;;;;;;;;;19.60;71.80;;;;;;5048177;28;19909;-71
2023/07/10 14:16:14;;;;;;;;;;;19.80;71.50;;;;;;5048209;28;19952;-71
2023/07/10 14:18:40;;;;;;;;;;;20.00;71.30;;;;;;5040228;28;20012;-71